createdAt,value
2022-11-29T00:01:48.326Z,96823.94
2022-11-29T00:04:17.354Z,96815.16
2022-11-29T00:06:46.848Z,96815.44
2022-11-29T00:09:15.957Z,96818.09
2022-11-29T00:12:04.799Z,96815.44
2022-11-29T00:14:35.759Z,96812.25
2022-11-29T00:17:04.899Z,96821.81
2022-11-29T00:19:34.292Z,96813.81
2022-11-29T00:22:03.875Z,96813.81
2022-11-29T00:24:39.092Z,96807.69
2022-11-29T00:27:14.758Z,96807.44
2022-11-29T00:30:06.486Z,96804.78
2022-11-29T00:32:37.323Z,96807.44
2022-11-29T00:35:09.916Z,96809.84
2022-11-29T00:37:39.511Z,96803.19
2022-11-29T00:40:09.939Z,96807.44
2022-11-29T00:42:38.843Z,96802.38
2022-11-29T00:45:10.588Z,96800.81
2022-11-29T00:47:40.183Z,96799.97
2022-11-29T00:50:09.805Z,96802.59
2022-11-29T00:52:47.812Z,96801.56
2022-11-29T00:55:16.805Z,96803.97
2022-11-29T00:57:45.799Z,96800.00
2022-11-29T01:00:17.664Z,96800.50
2022-11-29T01:02:47.124Z,96798.91
2022-11-29T01:05:16.063Z,96798.91
2022-11-29T01:07:45.343Z,96800.50
2022-11-29T01:10:14.460Z,96805.31
2022-11-29T01:12:43.246Z,96802.13
2022-11-29T01:15:13.059Z,96805.84
2022-11-29T01:17:43.491Z,96808.22
2022-11-29T01:20:14.332Z,96805.28
2022-11-29T01:22:43.627Z,96800.50
2022-11-29T01:25:14.464Z,96803.16
2022-11-29T01:27:43.766Z,96802.59
2022-11-29T01:30:16.033Z,96810.59
2022-11-29T01:32:49.333Z,96800.44
2022-11-29T01:35:18.842Z,96805.50
2022-11-29T01:37:47.832Z,96801.53
2022-11-29T01:40:16.911Z,96802.06
2022-11-29T01:42:46.108Z,96805.81
2022-11-29T01:45:23.929Z,96799.94
2022-11-29T01:47:56.284Z,96804.72
2022-11-29T01:50:25.686Z,96805.50
2022-11-29T01:52:54.597Z,96799.94
2022-11-29T01:55:23.796Z,96805.25
2022-11-29T01:57:53.017Z,96801.53
2022-11-29T02:00:22.454Z,96799.44
2022-11-29T02:02:57.837Z,96801.56
2022-11-29T02:05:27.116Z,96798.91
2022-11-29T02:07:57.854Z,96797.28
2022-11-29T02:10:34.249Z,96796.72
2022-11-29T02:13:10.921Z,96797.84
2022-11-29T02:15:44.769Z,96794.13
2022-11-29T02:18:16.541Z,96791.41
2022-11-29T02:21:53.665Z,96792.75
2022-11-29T02:24:46.318Z,96791.41
2022-11-29T02:27:48.450Z,96793.00
2022-11-29T02:30:22.422Z,96801.53
2022-11-29T02:33:28.271Z,96799.13
2022-11-29T02:36:25.634Z,96800.47
2022-11-29T02:39:24.118Z,96802.06
2022-11-29T02:42:55.604Z,96808.72
2022-11-29T02:45:46.437Z,96805.50
2022-11-29T02:48:30.532Z,96803.63
2022-11-29T02:51:03.097Z,96808.72
2022-11-29T02:53:37.124Z,96807.13
2022-11-29T02:56:11.830Z,96807.44
2022-11-29T02:58:46.988Z,96806.38
2022-11-29T03:01:19.908Z,96811.16
2022-11-29T03:03:52.433Z,96815.41
2022-11-29T03:06:28.820Z,96815.69
2022-11-29T03:09:03.945Z,96813.81
2022-11-29T03:11:39.928Z,96816.47
2022-11-29T03:14:16.281Z,96813.56
2022-11-29T03:16:48.962Z,96818.63
2022-11-29T03:19:31.268Z,96818.63
2022-11-29T03:22:09.682Z,96827.66
2022-11-29T03:24:45.789Z,96822.84
2022-11-29T03:27:18.935Z,96832.19
2022-11-29T03:29:52.642Z,96819.94
2022-11-29T03:32:26.792Z,96823.94
2022-11-29T03:35:01.614Z,96821.53
2022-11-29T03:37:38.707Z,96827.91
2022-11-29T03:40:11.660Z,96833.78
2022-11-29T03:42:45.983Z,96836.09
2022-11-29T03:45:22.326Z,96837.72
2022-11-29T03:47:58.302Z,96832.16
2022-11-29T03:50:30.667Z,96834.78
2022-11-29T03:53:05.711Z,96837.72
2022-11-29T03:55:59.590Z,96835.03
2022-11-29T03:58:47.638Z,96833.94
2022-11-29T04:02:07.089Z,96833.91
2022-11-29T04:05:23.433Z,96830.72
2022-11-29T04:08:18.871Z,96831.53
2022-11-29T04:11:47.362Z,96828.13
2022-11-29T04:14:31.771Z,96829.22
2022-11-29T04:17:34.249Z,96837.19
2022-11-29T04:20:44.194Z,96832.41
2022-11-29T04:23:39.980Z,96826.03
2022-11-29T04:26:38.256Z,96833.22
2022-11-29T04:29:21.741Z,96826.56
2022-11-29T04:32:05.279Z,96825.00
2022-11-29T04:35:09.554Z,96827.09
2022-11-29T04:38:05.995Z,96828.72
2022-11-29T04:40:49.879Z,96833.25
2022-11-29T04:43:37.307Z,96836.16
2022-11-29T04:46:28.559Z,96840.69
2022-11-29T04:49:16.924Z,96831.66
2022-11-29T04:52:10.953Z,96835.66
2022-11-29T04:54:42.848Z,96840.19
2022-11-29T04:57:19.079Z,96833.78
2022-11-29T04:59:53.686Z,96834.28
2022-11-29T05:02:34.093Z,96840.16
2022-11-29T05:05:09.407Z,96842.53
2022-11-29T05:07:45.046Z,96849.19
2022-11-29T05:10:32.073Z,96851.31
2022-11-29T05:13:07.625Z,96847.56
2022-11-29T05:16:12.847Z,96843.88
2022-11-29T05:18:59.987Z,96857.41
2022-11-29T05:21:39.222Z,96852.31
2022-11-29T05:24:19.453Z,96844.59
2022-11-29T05:26:53.286Z,96848.38
2022-11-29T05:29:27.491Z,96847.25
2022-11-29T05:32:01.106Z,96852.09
2022-11-29T05:34:38.600Z,96849.94
2022-11-29T05:37:19.574Z,96855.25
2022-11-29T05:39:58.263Z,96856.88
2022-11-29T05:42:57.553Z,96854.44
2022-11-29T05:45:28.832Z,96853.13
2022-11-29T05:48:03.474Z,96861.13
2022-11-29T05:50:37.080Z,96857.88
2022-11-29T05:53:17.826Z,96862.72
2022-11-29T05:55:53.397Z,96864.50
2022-11-29T05:58:30.700Z,96861.31
2022-11-29T06:01:03.262Z,96863.69
2022-11-29T06:03:37.050Z,96864.81
2022-11-29T06:06:14.844Z,96864.81
2022-11-29T06:08:48.164Z,96861.88
2022-11-29T06:11:19.819Z,96863.75
2022-11-29T06:13:56.805Z,96865.88
2022-11-29T06:16:44.133Z,96865.06
2022-11-29T06:19:34.012Z,96863.69
2022-11-29T06:22:21.235Z,96870.91
2022-11-29T06:25:02.515Z,96875.19
2022-11-29T06:27:48.709Z,96881.84
2022-11-29T06:30:21.094Z,96877.59
2022-11-29T06:32:55.304Z,96877.59
2022-11-29T06:35:40.682Z,96878.66
2022-11-29T06:38:17.747Z,96876.25
2022-11-29T06:40:47.307Z,96890.41
2022-11-29T06:43:17.499Z,96889.31
2022-11-29T06:45:50.689Z,96887.19
2022-11-29T06:48:23.779Z,96896.25
2022-11-29T06:51:00.659Z,96887.19
2022-11-29T06:53:39.380Z,96891.75
2022-11-29T06:56:17.295Z,96896.78
2022-11-29T06:58:53.034Z,96894.66
2022-11-29T07:01:30.939Z,96895.72
2022-11-29T07:04:20.795Z,96900.53
2022-11-29T07:06:50.229Z,96899.47
2022-11-29T07:09:22.600Z,96898.94
2022-11-29T07:11:52.005Z,96908.78
2022-11-29T07:14:21.731Z,96912.75
2022-11-29T07:16:59.501Z,96909.59
2022-11-29T07:19:37.623Z,96914.94
2022-11-29T07:22:10.498Z,96911.72
2022-11-29T07:24:52.509Z,96909.88
2022-11-29T07:27:24.166Z,96910.19
2022-11-29T07:30:12.413Z,96914.16
2022-11-29T07:32:55.895Z,96922.44
2022-11-29T07:35:41.437Z,96916.06
2022-11-29T07:38:15.441Z,96912.59
2022-11-29T07:40:53.298Z,96916.09
2022-11-29T07:43:33.680Z,96913.91
2022-11-29T07:46:02.598Z,96911.81
2022-11-29T07:48:31.690Z,96920.84
2022-11-29T07:51:02.183Z,96920.28
2022-11-29T07:53:31.317Z,96915.78
2022-11-29T07:56:20.280Z,96929.63
2022-11-29T07:58:49.526Z,96923.78
2022-11-29T08:01:18.462Z,96937.91
2022-11-29T08:03:57.196Z,96929.91
2022-11-29T08:06:31.556Z,96927.22
2022-11-29T08:09:00.917Z,96930.19
2022-11-29T08:11:31.369Z,96932.28
2022-11-29T08:14:00.543Z,96934.41
2022-11-29T08:16:29.619Z,96937.53
2022-11-29T08:18:58.842Z,96929.31
2022-11-29T08:21:27.946Z,96943.16
2022-11-29T08:23:59.494Z,96938.91
2022-11-29T08:26:31.688Z,96941.59
2022-11-29T08:29:02.602Z,96946.91
2022-11-29T08:31:34.550Z,96947.72
2022-11-29T08:34:07.044Z,96944.81
2022-11-29T08:36:36.505Z,96938.91
2022-11-29T08:39:09.143Z,96954.88
2022-11-29T08:41:38.593Z,96949.84
2022-11-29T08:44:09.467Z,96945.34
2022-11-29T08:46:56.131Z,96947.19
2022-11-29T08:49:25.275Z,96946.91
2022-11-29T08:52:14.544Z,96940.28
2022-11-29T08:54:42.799Z,96949.88
2022-11-29T09:00:03.239Z,96950.66
2022-11-29T09:02:32.428Z,96951.19
2022-11-29T09:05:01.429Z,96961.59
2022-11-29T09:07:30.789Z,96950.69
2022-11-29T09:10:05.255Z,96960.28
2022-11-29T09:12:34.357Z,96960.28
2022-11-29T09:15:05.293Z,96961.38
2022-11-29T09:17:34.489Z,96960.31
2022-11-29T09:20:08.484Z,96959.25
2022-11-29T09:22:37.703Z,96968.53
2022-11-29T09:25:07.621Z,96968.88
2022-11-29T09:27:36.715Z,96969.84
2022-11-29T09:30:09.087Z,96968.97
2022-11-29T09:32:37.968Z,96971.66
2022-11-29T09:35:08.204Z,96972.47
2022-11-29T09:37:37.402Z,96976.53
2022-11-29T09:40:07.222Z,96977.63
2022-11-29T09:42:48.932Z,96968.78
2022-11-29T09:45:25.141Z,96974.13
2022-11-29T09:48:13.630Z,96975.78
2022-11-29T09:50:46.015Z,96979.44
2022-11-29T09:53:24.102Z,96972.59
2022-11-29T09:56:05.693Z,96973.66
2022-11-29T09:58:40.832Z,96971.53
2022-11-29T10:01:20.611Z,96983.81
2022-11-29T10:03:55.001Z,96980.63
2022-11-29T10:06:27.166Z,96974.22
2022-11-29T10:09:00.491Z,96975.59
2022-11-29T10:11:32.322Z,96978.75
2022-11-29T10:14:04.081Z,96973.19
2022-11-29T10:16:43.234Z,96975.31
2022-11-29T10:19:17.159Z,96976.09
2022-11-29T10:21:54.600Z,96969.97
2022-11-29T10:24:24.330Z,96972.13
2022-11-29T10:26:53.595Z,96982.53
2022-11-29T10:29:23.509Z,96969.22
2022-11-29T10:31:56.932Z,96973.72
2022-11-29T10:34:27.594Z,96970.50
2022-11-29T10:37:00.057Z,96975.84
2022-11-29T10:39:34.860Z,96969.47
2022-11-29T10:42:05.113Z,96970.00
2022-11-29T10:44:36.869Z,96969.75
2022-11-29T10:47:10.909Z,96965.19
2022-11-29T10:49:41.068Z,96959.63
2022-11-29T10:52:19.410Z,96960.16
2022-11-29T10:54:48.969Z,96957.25
2022-11-29T10:57:20.369Z,96960.16
2022-11-29T11:00:01.344Z,96953.00
2022-11-29T11:02:32.473Z,96960.44
2022-11-29T11:05:02.319Z,96965.25
2022-11-29T11:07:33.411Z,96964.16
2022-11-29T11:10:03.072Z,96955.66
2022-11-29T11:12:34.621Z,96955.66
2022-11-29T11:15:21.338Z,96964.75
2022-11-29T11:18:04.036Z,96959.13
2022-11-29T11:20:34.669Z,96960.72
2022-11-29T11:23:04.875Z,96958.31
2022-11-29T11:25:35.494Z,96968.47
2022-11-29T11:28:15.659Z,96965.81
2022-11-29T11:30:51.977Z,96969.53
2022-11-29T11:33:24.624Z,96970.84
2022-11-29T11:36:10.248Z,96963.94
2022-11-29T11:38:40.508Z,96965.25
2022-11-29T11:41:19.154Z,96968.22
2022-11-29T11:43:53.779Z,96971.41
2022-11-29T11:46:25.696Z,96964.75
2022-11-29T11:48:55.768Z,96971.13
2022-11-29T11:51:26.378Z,96970.34
2022-11-29T11:53:57.643Z,96963.94
2022-11-29T11:56:27.954Z,96973.81
2022-11-29T11:58:59.009Z,96972.75
2022-11-29T12:01:30.995Z,96977.28
2022-11-29T12:04:05.047Z,96975.41
2022-11-29T12:06:39.702Z,96979.69
2022-11-29T12:09:16.673Z,96972.75
2022-11-29T12:11:49.332Z,96972.19
2022-11-29T12:14:25.510Z,96979.13
2022-11-29T12:17:03.443Z,96978.09
2022-11-29T12:19:40.202Z,96979.13
2022-11-29T12:22:15.433Z,96979.69
2022-11-29T12:24:51.446Z,96974.34
2022-11-29T12:27:20.617Z,96982.88
2022-11-29T12:29:58.518Z,96982.88
2022-11-29T12:32:48.815Z,96981.81
2022-11-29T12:35:52.842Z,96983.97
2022-11-29T12:38:43.125Z,96978.88
2022-11-29T12:41:30.855Z,96981.56
2022-11-29T12:44:09.584Z,96988.22
2022-11-29T12:46:39.657Z,96986.06
2022-11-29T12:49:17.498Z,96985.06
2022-11-29T12:51:56.203Z,96985.06
2022-11-29T12:54:37.303Z,96984.00
2022-11-29T12:57:09.676Z,96986.13
2022-11-29T13:00:01.112Z,96989.88
2022-11-29T13:02:39.230Z,96998.66
2022-11-29T13:05:16.490Z,96995.75
2022-11-29T13:07:59.330Z,96996.81
2022-11-29T13:10:38.442Z,96990.94
2022-11-29T13:13:19.623Z,96996.81
2022-11-29T13:15:53.677Z,96994.91
2022-11-29T13:18:26.053Z,96995.19
2022-11-29T13:20:59.321Z,97005.31
2022-11-29T13:23:45.508Z,97010.13
2022-11-29T13:26:47.822Z,97000.53
2022-11-29T13:29:18.623Z,97006.38
2022-11-29T13:31:48.932Z,96999.97
2022-11-29T13:34:21.552Z,97005.06
2022-11-29T13:37:00.941Z,97002.94
2022-11-29T13:39:41.315Z,97015.22
2022-11-29T13:42:17.799Z,97015.22
2022-11-29T13:44:51.463Z,97015.47
2022-11-29T13:47:20.846Z,97017.34
2022-11-29T13:50:02.469Z,97021.88
2022-11-29T13:52:39.463Z,97016.78
2022-11-29T13:55:23.250Z,97021.88
2022-11-29T13:58:15.331Z,97019.72
2022-11-29T14:00:50.944Z,97017.84
2022-11-29T14:03:30.086Z,97024.28
2022-11-29T14:06:21.353Z,97019.72
2022-11-29T14:09:21.641Z,97025.59
2022-11-29T14:11:55.248Z,97024.53
2022-11-29T14:14:27.240Z,97021.31
2022-11-29T14:17:00.221Z,97028.00
2022-11-29T14:19:33.716Z,97023.97
2022-11-29T14:22:26.178Z,97025.31
2022-11-29T14:25:50.414Z,97028.72
2022-11-29T14:28:33.260Z,97025.25
2022-11-29T14:31:02.716Z,97029.22
2022-11-29T14:33:42.103Z,97031.63
2022-11-29T14:36:27.394Z,97029.47
2022-11-29T14:39:06.149Z,97032.94
2022-11-29T14:41:44.821Z,97034.00
2022-11-29T14:44:19.157Z,97037.72
2022-11-29T14:46:48.097Z,97045.75
2022-11-29T14:49:23.862Z,97039.06
2022-11-29T14:52:10.305Z,97049.47
2022-11-29T14:54:54.569Z,97044.41
2022-11-29T14:58:15.039Z,97048.44
2022-11-29T15:00:57.243Z,97050.31
2022-11-29T15:03:30.955Z,97047.38
2022-11-29T15:06:01.172Z,97048.19
2022-11-29T15:08:34.937Z,97052.94
2022-11-29T15:11:06.426Z,97046.81
2022-11-29T15:13:36.179Z,97048.38
2022-11-29T15:16:18.715Z,97046.28
2022-11-29T15:19:23.919Z,97049.97
2022-11-29T15:21:57.566Z,97056.38
2022-11-29T15:24:28.754Z,97053.19
2022-11-29T15:26:59.300Z,97055.31
2022-11-29T15:29:30.031Z,97057.41
2022-11-29T15:32:03.745Z,97058.44
2022-11-29T15:34:34.676Z,97060.06
2022-11-29T15:37:07.740Z,97061.69
2022-11-29T15:39:39.738Z,97061.41
2022-11-29T15:42:16.161Z,97061.91
2022-11-29T15:44:47.791Z,97072.31
2022-11-29T15:47:26.792Z,97069.66
2022-11-29T15:49:56.085Z,97069.66
2022-11-29T15:52:29.852Z,97077.13
2022-11-29T15:55:01.649Z,97079.25
2022-11-29T15:57:33.412Z,97079.75
2022-11-29T16:00:03.835Z,97076.03
2022-11-29T16:02:37.199Z,97081.88
2022-11-29T16:05:15.007Z,97086.41
2022-11-29T16:07:44.586Z,97084.53
2022-11-29T16:10:15.859Z,97084.00
2022-11-29T16:12:53.981Z,97085.88
2022-11-29T16:15:29.653Z,97095.72
2022-11-29T16:18:04.381Z,97098.88
2022-11-29T16:20:36.136Z,97102.63
2022-11-29T16:23:11.569Z,97098.88
2022-11-29T16:25:57.450Z,97105.28
2022-11-29T16:28:30.749Z,97106.88
2022-11-29T16:31:00.199Z,97099.94
2022-11-29T16:33:30.420Z,97103.66
2022-11-29T16:36:07.040Z,97107.97
2022-11-29T16:38:35.777Z,97106.88
2022-11-29T16:41:07.313Z,97107.38
2022-11-29T16:43:55.559Z,97112.44
2022-11-29T16:46:48.017Z,97107.91
2022-11-29T16:49:36.761Z,97105.75
2022-11-29T16:52:24.493Z,97101.75
2022-11-29T16:54:53.730Z,97109.44
2022-11-29T16:57:22.666Z,97114.25
2022-11-29T16:59:51.726Z,97107.03
2022-11-29T17:02:20.555Z,97110.53
2022-11-29T17:04:52.169Z,97111.03
2022-11-29T17:07:24.021Z,97111.31
2022-11-29T17:09:53.702Z,97119.59
2022-11-29T17:12:22.526Z,97108.94
2022-11-29T17:14:51.378Z,97119.81
2022-11-29T17:17:20.784Z,97113.69
2022-11-29T17:19:50.904Z,97113.38
2022-11-29T17:22:19.591Z,97117.41
2022-11-29T17:24:48.796Z,97115.00
2022-11-29T17:27:17.676Z,97114.19
2022-11-29T17:29:46.663Z,97118.97
2022-11-29T17:32:15.396Z,97125.34
2022-11-29T17:34:44.782Z,97125.84
2022-11-29T17:37:15.501Z,97128.03
2022-11-29T17:39:48.034Z,97132.56
2022-11-29T17:42:17.284Z,97128.56
2022-11-29T17:44:46.031Z,97129.63
2022-11-29T17:47:17.452Z,97128.81
2022-11-29T17:49:46.530Z,97129.56
2022-11-29T17:52:16.824Z,97127.47
2022-11-29T17:54:50.024Z,97131.47
2022-11-29T17:57:19.987Z,97141.81
2022-11-29T17:59:48.774Z,97154.34
2022-11-29T18:02:17.937Z,97146.06
2022-11-29T18:04:47.042Z,97158.53
2022-11-29T18:07:18.178Z,97157.75
2022-11-29T18:09:48.580Z,97160.97
2022-11-29T18:12:18.216Z,97159.84
2022-11-29T18:14:47.417Z,97154.28
2022-11-29T18:17:16.921Z,97152.94
2022-11-29T18:19:45.921Z,97152.41
2022-11-29T18:22:16.750Z,97152.84
2022-11-29T18:24:46.016Z,97167.78
2022-11-29T18:27:15.563Z,97173.63
2022-11-29T18:29:44.227Z,97174.44
2022-11-29T18:32:16.064Z,97173.13
2022-11-29T18:34:48.990Z,97172.63
2022-11-29T18:37:33.936Z,97182.75
2022-11-29T18:40:33.863Z,97175.81
2022-11-29T18:43:02.876Z,97179.03
2022-11-29T18:45:31.971Z,97181.66
2022-11-29T18:48:00.967Z,97187.47
2022-11-29T18:50:30.985Z,97179.81
2022-11-29T18:53:01.187Z,97182.66
2022-11-29T18:55:30.375Z,97176.53
2022-11-29T18:58:01.726Z,97192.75
2022-11-29T19:00:36.418Z,97198.84
2022-11-29T19:03:17.869Z,97195.34
2022-11-29T19:05:52.144Z,97198.19
2022-11-29T19:08:22.848Z,97211.78
2022-11-29T19:10:51.877Z,97215.00
2022-11-29T19:13:20.809Z,97209.69
2022-11-29T19:15:53.846Z,97203.31
2022-11-29T19:18:24.326Z,97207.28
2022-11-29T19:20:54.448Z,97213.91
2022-11-29T19:23:25.084Z,97216.81
2022-11-29T19:25:54.049Z,97219.25
2022-11-29T19:28:22.851Z,97214.41
2022-11-29T19:30:55.875Z,97213.06
2022-11-29T19:33:49.013Z,97214.41
2022-11-29T19:36:19.653Z,97212.00
2022-11-29T19:38:53.772Z,97216.44
2022-11-29T19:41:24.290Z,97213.25
2022-11-29T19:43:55.967Z,97214.56
2022-11-29T19:46:26.943Z,97208.38
2022-11-29T19:48:57.835Z,97216.69
2022-11-29T19:51:27.749Z,97221.47
2022-11-29T19:53:59.810Z,97221.75
2022-11-29T19:56:30.260Z,97222.34
2022-11-29T19:58:59.994Z,97224.00
2022-11-29T20:01:41.800Z,97226.03
2022-11-29T20:04:18.008Z,97223.66
2022-11-29T20:06:47.679Z,97225.84
2022-11-29T20:09:18.609Z,97236.28
2022-11-29T20:11:49.045Z,97230.66
2022-11-29T20:14:21.050Z,97239.16
2022-11-29T20:16:49.769Z,97238.75
2022-11-29T20:19:19.142Z,97246.44
2022-11-29T20:21:49.472Z,97240.56
2022-11-29T20:24:20.610Z,97242.47
2022-11-29T20:26:50.679Z,97243.84
2022-11-29T20:29:21.961Z,97257.72
2022-11-29T20:31:51.474Z,97260.38
2022-11-29T20:34:21.201Z,97257.63
2022-11-29T20:37:13.229Z,97265.53
2022-11-29T20:39:48.220Z,97257.56
2022-11-29T20:43:01.861Z,97256.56
2022-11-29T20:45:31.352Z,97248.91
2022-11-29T20:48:03.637Z,97251.81
2022-11-29T20:50:34.167Z,97250.47
2022-11-29T20:53:17.034Z,97250.09
2022-11-29T20:55:57.066Z,97252.31
2022-11-29T20:58:26.563Z,97246.00
2022-11-29T21:00:56.683Z,97248.59
2022-11-29T21:03:26.867Z,97248.53
2022-11-29T21:05:56.956Z,97245.31
2022-11-29T21:08:27.587Z,97253.28
2022-11-29T21:11:03.440Z,97252.81
2022-11-29T21:13:33.254Z,97252.88
2022-11-29T21:16:02.914Z,97243.97
2022-11-29T21:18:39.229Z,97246.41
2022-11-29T21:21:18.160Z,97257.03
2022-11-29T21:23:53.965Z,97257.63
2022-11-29T21:26:29.879Z,97263.56
2022-11-29T21:29:07.054Z,97262.28
2022-11-29T21:31:36.722Z,97264.13
2022-11-29T21:34:05.656Z,97274.00
2022-11-29T21:36:34.858Z,97271.13
2022-11-29T21:39:05.492Z,97266.91
2022-11-29T21:41:36.478Z,97265.28
2022-11-29T21:44:07.535Z,97265.28
2022-11-29T21:46:40.619Z,97268.13
2022-11-29T21:49:14.265Z,97274.81
2022-11-29T21:51:43.158Z,97268.94
2022-11-29T21:54:11.925Z,97272.66
2022-11-29T21:56:42.365Z,97273.72
2022-11-29T21:59:11.370Z,97267.41
2022-11-29T22:01:40.641Z,97262.63
2022-11-29T22:04:09.868Z,97269.78
2022-11-29T22:06:39.374Z,97270.13
2022-11-29T22:09:11.522Z,97261.09
2022-11-29T22:11:43.177Z,97266.41
2022-11-29T22:14:16.402Z,97270.66
2022-11-29T22:16:47.833Z,97268.81
2022-11-29T22:19:18.156Z,97272.22
2022-11-29T22:21:48.226Z,97269.22
2022-11-29T22:24:18.888Z,97272.72
2022-11-29T22:26:49.363Z,97272.78
2022-11-29T22:29:18.754Z,97271.22
2022-11-29T22:31:50.247Z,97260.00
2022-11-29T22:34:19.307Z,97268.00
2022-11-29T22:36:48.197Z,97261.91
2022-11-29T22:39:17.282Z,97252.53
2022-11-29T22:41:52.224Z,97254.84
2022-11-29T22:44:24.804Z,97257.81
2022-11-29T22:46:53.891Z,97256.56
2022-11-29T22:49:23.098Z,97260.97
2022-11-29T22:51:52.480Z,97258.25
2022-11-29T22:54:21.271Z,97254.59
2022-11-29T22:56:50.495Z,97256.25
2022-11-29T22:59:19.257Z,97247.22
2022-11-29T23:01:49.917Z,97255.22
2022-11-29T23:04:18.581Z,97243.75
2022-11-29T23:06:47.678Z,97248.28
2022-11-29T23:09:19.993Z,97238.72
2022-11-29T23:11:53.347Z,97244.63
2022-11-29T23:14:23.385Z,97249.31
2022-11-29T23:16:53.841Z,97245.66
2022-11-29T23:19:22.805Z,97251.56
2022-11-29T23:21:52.109Z,97244.13
2022-11-29T23:24:20.898Z,97241.47
2022-11-29T23:26:49.931Z,97238.50
2022-11-29T23:29:20.581Z,97247.31
2022-11-29T23:31:50.706Z,97241.75
2022-11-29T23:34:20.770Z,97240.97
2022-11-29T23:36:52.956Z,97242.53
2022-11-29T23:39:21.971Z,97241.41
2022-11-29T23:41:50.532Z,97241.41
2022-11-29T23:44:19.303Z,97237.16
2022-11-29T23:46:48.502Z,97239.31
2022-11-29T23:49:17.903Z,97237.09
2022-11-29T23:51:48.331Z,97243.53
2022-11-29T23:54:17.068Z,97237.41
2022-11-29T23:56:48.651Z,97235.50
2022-11-29T23:59:17.670Z,97241.91
